sensor_id;sensor_type;location;lat;lon;timestamp;temperature;humidity
70079;DHT22;57451;52.496;13.456;2023-06-14T00:01:52;16.20;54.70
70079;DHT22;57451;52.496;13.456;2023-06-14T00:04:20;16.20;54.50
70079;DHT22;57451;52.496;13.456;2023-06-14T00:06:48;16.20;54.40
70079;DHT22;57451;52.496;13.456;2023-06-14T00:09:18;16.20;55.40
70079;DHT22;57451;52.496;13.456;2023-06-14T00:11:46;16.10;55.50
70079;DHT22;57451;52.496;13.456;2023-06-14T00:14:14;16.10;55.30
70079;DHT22;57451;52.496;13.456;2023-06-14T00:16:42;16.10;55.70
70079;DHT22;57451;52.496;13.456;2023-06-14T00:19:10;16.00;56.20
70079;DHT22;57451;52.496;13.456;2023-06-14T00:21:38;16.00;56.30
70079;DHT22;57451;52.496;13.456;2023-06-14T00:24:06;16.00;56.80
70079;DHT22;57451;52.496;13.456;2023-06-14T00:26:34;16.00;55.90
70079;DHT22;57451;52.496;13.456;2023-06-14T00:29:01;16.00;57.10
70079;DHT22;57451;52.496;13.456;2023-06-14T00:31:31;16.00;56.30
70079;DHT22;57451;52.496;13.456;2023-06-14T00:33:59;15.90;57.20
70079;DHT22;57451;52.496;13.456;2023-06-14T00:36:26;15.90;57.40
70079;DHT22;57451;52.496;13.456;2023-06-14T00:38:54;15.90;57.30
70079;DHT22;57451;52.496;13.456;2023-06-14T00:41:22;15.80;58.00
70079;DHT22;57451;52.496;13.456;2023-06-14T00:43:50;15.80;57.90
70079;DHT22;57451;52.496;13.456;2023-06-14T00:46:18;15.80;58.10
70079;DHT22;57451;52.496;13.456;2023-06-14T00:48:48;15.80;57.20
70079;DHT22;57451;52.496;13.456;2023-06-14T00:51:16;15.70;57.50
70079;DHT22;57451;52.496;13.456;2023-06-14T00:53:44;15.70;57.90
70079;DHT22;57451;52.496;13.456;2023-06-14T00:56:14;15.70;58.40
70079;DHT22;57451;52.496;13.456;2023-06-14T00:58:43;15.70;58.70
70079;DHT22;57451;52.496;13.456;2023-06-14T01:01:11;15.70;59.10
70079;DHT22;57451;52.496;13.456;2023-06-14T01:03:38;15.60;59.10
70079;DHT22;57451;52.496;13.456;2023-06-14T01:06:18;15.60;58.80
70079;DHT22;57451;52.496;13.456;2023-06-14T01:09:01;15.50;59.20
70079;DHT22;57451;52.496;13.456;2023-06-14T01:11:35;15.60;59.60
70079;DHT22;57451;52.496;13.456;2023-06-14T01:14:05;15.60;59.20
70079;DHT22;57451;52.496;13.456;2023-06-14T01:16:33;15.60;59.40
70079;DHT22;57451;52.496;13.456;2023-06-14T01:19:03;15.60;58.40
70079;DHT22;57451;52.496;13.456;2023-06-14T01:21:33;15.50;58.60
70079;DHT22;57451;52.496;13.456;2023-06-14T01:24:10;15.60;58.30
70079;DHT22;57451;52.496;13.456;2023-06-14T01:26:38;15.50;59.30
70079;DHT22;57451;52.496;13.456;2023-06-14T01:29:13;15.50;59.30
70079;DHT22;57451;52.496;13.456;2023-06-14T01:31:45;15.50;59.60
70079;DHT22;57451;52.496;13.456;2023-06-14T01:34:13;15.40;59.10
70079;DHT22;57451;52.496;13.456;2023-06-14T01:36:43;15.40;59.40
70079;DHT22;57451;52.496;13.456;2023-06-14T01:39:14;15.40;59.20
70079;DHT22;57451;52.496;13.456;2023-06-14T01:41:43;15.40;59.40
70079;DHT22;57451;52.496;13.456;2023-06-14T01:44:12;15.40;60.30
70079;DHT22;57451;52.496;13.456;2023-06-14T01:46:42;15.40;59.80
70079;DHT22;57451;52.496;13.456;2023-06-14T01:49:10;15.40;59.60
70079;DHT22;57451;52.496;13.456;2023-06-14T01:51:38;15.40;59.30
70079;DHT22;57451;52.496;13.456;2023-06-14T01:54:05;15.40;58.40
70079;DHT22;57451;52.496;13.456;2023-06-14T01:56:34;15.30;59.30
70079;DHT22;57451;52.496;13.456;2023-06-14T01:59:01;15.30;59.70
70079;DHT22;57451;52.496;13.456;2023-06-14T02:01:29;15.30;59.60
70079;DHT22;57451;52.496;13.456;2023-06-14T02:03:58;15.30;60.70
70079;DHT22;57451;52.496;13.456;2023-06-14T02:06:26;15.30;60.30
70079;DHT22;57451;52.496;13.456;2023-06-14T02:08:55;15.20;59.70
70079;DHT22;57451;52.496;13.456;2023-06-14T02:11:22;15.20;60.00
70079;DHT22;57451;52.496;13.456;2023-06-14T02:13:51;15.20;61.40
70079;DHT22;57451;52.496;13.456;2023-06-14T02:16:19;15.10;61.70
70079;DHT22;57451;52.496;13.456;2023-06-14T02:18:47;15.10;60.40
70079;DHT22;57451;52.496;13.456;2023-06-14T02:21:16;15.10;61.10
70079;DHT22;57451;52.496;13.456;2023-06-14T02:23:46;15.10;60.30
70079;DHT22;57451;52.496;13.456;2023-06-14T02:26:13;15.10;61.40
70079;DHT22;57451;52.496;13.456;2023-06-14T02:28:41;15.10;61.40
70079;DHT22;57451;52.496;13.456;2023-06-14T02:31:10;15.10;62.00
70079;DHT22;57451;52.496;13.456;2023-06-14T02:33:37;15.00;61.90
70079;DHT22;57451;52.496;13.456;2023-06-14T02:36:06;15.00;62.00
70079;DHT22;57451;52.496;13.456;2023-06-14T02:38:34;15.00;62.00
70079;DHT22;57451;52.496;13.456;2023-06-14T02:41:02;15.00;61.40
70079;DHT22;57451;52.496;13.456;2023-06-14T02:43:29;15.00;61.40
70079;DHT22;57451;52.496;13.456;2023-06-14T02:45:58;15.00;62.00
70079;DHT22;57451;52.496;13.456;2023-06-14T02:48:27;15.00;61.60
70079;DHT22;57451;52.496;13.456;2023-06-14T02:50:55;15.00;61.20
70079;DHT22;57451;52.496;13.456;2023-06-14T02:53:23;15.00;62.00
70079;DHT22;57451;52.496;13.456;2023-06-14T02:55:51;14.90;61.90
70079;DHT22;57451;52.496;13.456;2023-06-14T02:58:19;14.90;61.70
70079;DHT22;57451;52.496;13.456;2023-06-14T03:00:47;14.90;61.90
70079;DHT22;57451;52.496;13.456;2023-06-14T03:03:15;14.90;61.10
70079;DHT22;57451;52.496;13.456;2023-06-14T03:05:52;14.90;62.00
70079;DHT22;57451;52.496;13.456;2023-06-14T03:08:24;14.90;61.10
70079;DHT22;57451;52.496;13.456;2023-06-14T03:10:55;14.90;61.80
70079;DHT22;57451;52.496;13.456;2023-06-14T03:13:24;14.90;62.10
70079;DHT22;57451;52.496;13.456;2023-06-14T03:15:52;14.90;61.70
70079;DHT22;57451;52.496;13.456;2023-06-14T03:18:21;14.90;62.10
70079;DHT22;57451;52.496;13.456;2023-06-14T03:20:55;14.90;61.90
70079;DHT22;57451;52.496;13.456;2023-06-14T03:23:25;14.90;61.90
70079;DHT22;57451;52.496;13.456;2023-06-14T03:25:53;14.90;62.20
70079;DHT22;57451;52.496;13.456;2023-06-14T03:28:21;14.90;62.40
70079;DHT22;57451;52.496;13.456;2023-06-14T03:30:49;14.90;62.40
70079;DHT22;57451;52.496;13.456;2023-06-14T03:33:17;14.80;62.70
70079;DHT22;57451;52.496;13.456;2023-06-14T03:35:44;14.80;62.20
70079;DHT22;57451;52.496;13.456;2023-06-14T03:38:13;14.80;62.80
70079;DHT22;57451;52.496;13.456;2023-06-14T03:40:41;14.80;62.50
70079;DHT22;57451;52.496;13.456;2023-06-14T03:43:09;14.80;62.40
70079;DHT22;57451;52.496;13.456;2023-06-14T03:45:37;14.90;61.30
70079;DHT22;57451;52.496;13.456;2023-06-14T03:48:08;14.80;61.60
70079;DHT22;57451;52.496;13.456;2023-06-14T03:50:37;14.90;61.80
70079;DHT22;57451;52.496;13.456;2023-06-14T03:53:06;14.80;61.80
70079;DHT22;57451;52.496;13.456;2023-06-14T03:55:35;14.80;61.20
70079;DHT22;57451;52.496;13.456;2023-06-14T03:58:24;14.80;61.80
70079;DHT22;57451;52.496;13.456;2023-06-14T04:00:52;14.80;60.80
70079;DHT22;57451;52.496;13.456;2023-06-14T04:03:19;14.80;61.40
70079;DHT22;57451;52.496;13.456;2023-06-14T04:05:52;14.80;62.10
70079;DHT22;57451;52.496;13.456;2023-06-14T04:08:24;14.90;61.60
70079;DHT22;57451;52.496;13.456;2023-06-14T04:10:53;14.90;62.00
70079;DHT22;57451;52.496;13.456;2023-06-14T04:13:21;14.90;62.00
70079;DHT22;57451;52.496;13.456;2023-06-14T04:15:48;14.90;61.70
70079;DHT22;57451;52.496;13.456;2023-06-14T04:18:22;14.90;62.10
70079;DHT22;57451;52.496;13.456;2023-06-14T04:20:51;15.00;61.80
70079;DHT22;57451;52.496;13.456;2023-06-14T04:23:18;15.00;61.00
70079;DHT22;57451;52.496;13.456;2023-06-14T04:25:46;15.10;61.70
70079;DHT22;57451;52.496;13.456;2023-06-14T04:28:15;15.10;61.50
70079;DHT22;57451;52.496;13.456;2023-06-14T04:30:45;15.10;61.90
70079;DHT22;57451;52.496;13.456;2023-06-14T04:33:17;15.10;61.40
70079;DHT22;57451;52.496;13.456;2023-06-14T04:35:45;15.20;62.50
70079;DHT22;57451;52.496;13.456;2023-06-14T04:38:15;15.30;61.80
70079;DHT22;57451;52.496;13.456;2023-06-14T04:40:43;15.30;62.40
70079;DHT22;57451;52.496;13.456;2023-06-14T04:46:23;15.40;60.80
70079;DHT22;57451;52.496;13.456;2023-06-14T04:48:51;15.50;60.90
70079;DHT22;57451;52.496;13.456;2023-06-14T04:51:18;15.50;60.70
70079;DHT22;57451;52.496;13.456;2023-06-14T04:53:48;15.60;60.90
70079;DHT22;57451;52.496;13.456;2023-06-14T04:56:19;15.60;60.80
70079;DHT22;57451;52.496;13.456;2023-06-14T04:58:48;15.70;61.00
70079;DHT22;57451;52.496;13.456;2023-06-14T05:01:15;15.80;61.20
70079;DHT22;57451;52.496;13.456;2023-06-14T05:03:44;15.80;61.10
70079;DHT22;57451;52.496;13.456;2023-06-14T05:06:12;15.90;60.50
70079;DHT22;57451;52.496;13.456;2023-06-14T05:08:41;16.00;59.80
70079;DHT22;57451;52.496;13.456;2023-06-14T05:11:09;16.00;59.60
70079;DHT22;57451;52.496;13.456;2023-06-14T05:13:36;16.00;60.00
70079;DHT22;57451;52.496;13.456;2023-06-14T05:16:04;16.10;60.30
70079;DHT22;57451;52.496;13.456;2023-06-14T05:18:31;16.10;59.70
70079;DHT22;57451;52.496;13.456;2023-06-14T05:21:02;16.10;59.50
70079;DHT22;57451;52.496;13.456;2023-06-14T05:23:31;16.10;58.50
70079;DHT22;57451;52.496;13.456;2023-06-14T05:25:59;16.20;58.50
70079;DHT22;57451;52.496;13.456;2023-06-14T05:28:26;16.20;60.10
70079;DHT22;57451;52.496;13.456;2023-06-14T05:30:54;16.20;60.00
70079;DHT22;57451;52.496;13.456;2023-06-14T05:33:21;16.30;59.30
70079;DHT22;57451;52.496;13.456;2023-06-14T05:35:49;16.30;59.50
70079;DHT22;57451;52.496;13.456;2023-06-14T05:38:18;16.40;59.40
70079;DHT22;57451;52.496;13.456;2023-06-14T05:40:45;16.40;59.60
70079;DHT22;57451;52.496;13.456;2023-06-14T05:43:13;16.40;59.80
70079;DHT22;57451;52.496;13.456;2023-06-14T05:45:40;16.40;59.90
70079;DHT22;57451;52.496;13.456;2023-06-14T05:48:08;16.40;59.90
70079;DHT22;57451;52.496;13.456;2023-06-14T05:50:36;16.40;60.00
70079;DHT22;57451;52.496;13.456;2023-06-14T05:53:03;16.50;60.00
70079;DHT22;57451;52.496;13.456;2023-06-14T05:55:32;16.50;59.80
70079;DHT22;57451;52.496;13.456;2023-06-14T05:57:59;16.50;59.20
70079;DHT22;57451;52.496;13.456;2023-06-14T06:00:27;16.60;59.20
70079;DHT22;57451;52.496;13.456;2023-06-14T06:02:55;16.60;58.50
70079;DHT22;57451;52.496;13.456;2023-06-14T06:05:25;16.70;58.60
70079;DHT22;57451;52.496;13.456;2023-06-14T06:07:52;16.70;58.80
70079;DHT22;57451;52.496;13.456;2023-06-14T06:10:20;16.70;58.40
70079;DHT22;57451;52.496;13.456;2023-06-14T06:12:49;16.70;59.40
70079;DHT22;57451;52.496;13.456;2023-06-14T06:15:19;16.70;59.30
70079;DHT22;57451;52.496;13.456;2023-06-14T06:17:46;16.70;59.30
70079;DHT22;57451;52.496;13.456;2023-06-14T06:20:23;16.80;59.20
70079;DHT22;57451;52.496;13.456;2023-06-14T06:22:56;16.80;59.30
70079;DHT22;57451;52.496;13.456;2023-06-14T06:25:24;16.70;59.30
70079;DHT22;57451;52.496;13.456;2023-06-14T06:27:55;16.70;58.70
70079;DHT22;57451;52.496;13.456;2023-06-14T06:30:25;16.80;59.40
70079;DHT22;57451;52.496;13.456;2023-06-14T06:32:53;16.80;58.50
70079;DHT22;57451;52.496;13.456;2023-06-14T06:35:20;16.80;58.60
70079;DHT22;57451;52.496;13.456;2023-06-14T06:37:48;16.80;58.90
70079;DHT22;57451;52.496;13.456;2023-06-14T06:40:15;16.80;59.00
70079;DHT22;57451;52.496;13.456;2023-06-14T06:42:43;16.90;60.10
70079;DHT22;57451;52.496;13.456;2023-06-14T06:45:14;16.90;59.30
70079;DHT22;57451;52.496;13.456;2023-06-14T06:47:42;16.90;59.30
70079;DHT22;57451;52.496;13.456;2023-06-14T06:50:10;16.90;59.20
70079;DHT22;57451;52.496;13.456;2023-06-14T06:52:37;16.90;59.80
70079;DHT22;57451;52.496;13.456;2023-06-14T06:55:05;17.00;59.60
70079;DHT22;57451;52.496;13.456;2023-06-14T06:57:32;17.00;59.60
70079;DHT22;57451;52.496;13.456;2023-06-14T07:00:00;17.00;59.60
70079;DHT22;57451;52.496;13.456;2023-06-14T07:02:29;17.10;59.10
70079;DHT22;57451;52.496;13.456;2023-06-14T07:04:58;17.10;58.80
70079;DHT22;57451;52.496;13.456;2023-06-14T07:07:25;17.20;58.90
70079;DHT22;57451;52.496;13.456;2023-06-14T07:09:53;17.20;59.10
70079;DHT22;57451;52.496;13.456;2023-06-14T07:12:20;17.30;59.50
70079;DHT22;57451;52.496;13.456;2023-06-14T07:14:48;17.40;59.10
70079;DHT22;57451;52.496;13.456;2023-06-14T07:17:15;17.40;58.60
70079;DHT22;57451;52.496;13.456;2023-06-14T07:19:44;17.50;58.60
70079;DHT22;57451;52.496;13.456;2023-06-14T07:22:14;17.60;57.90
70079;DHT22;57451;52.496;13.456;2023-06-14T07:24:44;17.60;57.60
70079;DHT22;57451;52.496;13.456;2023-06-14T07:27:11;17.70;58.00
70079;DHT22;57451;52.496;13.456;2023-06-14T07:29:42;17.80;57.60
70079;DHT22;57451;52.496;13.456;2023-06-14T07:32:09;17.80;57.30
70079;DHT22;57451;52.496;13.456;2023-06-14T07:34:36;17.90;57.40
70079;DHT22;57451;52.496;13.456;2023-06-14T07:37:05;18.00;57.50
70079;DHT22;57451;52.496;13.456;2023-06-14T07:39:33;18.10;57.10
70079;DHT22;57451;52.496;13.456;2023-06-14T07:42:00;18.20;57.40
70079;DHT22;57451;52.496;13.456;2023-06-14T07:44:29;18.20;56.70
70079;DHT22;57451;52.496;13.456;2023-06-14T07:47:00;18.30;56.70
70079;DHT22;57451;52.496;13.456;2023-06-14T07:49:27;18.40;56.70
70079;DHT22;57451;52.496;13.456;2023-06-14T07:51:55;18.40;56.40
70079;DHT22;57451;52.496;13.456;2023-06-14T07:54:24;18.50;56.00
70079;DHT22;57451;52.496;13.456;2023-06-14T07:56:53;18.60;56.30
70079;DHT22;57451;52.496;13.456;2023-06-14T07:59:21;18.60;56.10
70079;DHT22;57451;52.496;13.456;2023-06-14T08:01:48;18.70;55.70
70079;DHT22;57451;52.496;13.456;2023-06-14T08:04:16;18.70;55.70
70079;DHT22;57451;52.496;13.456;2023-06-14T08:06:43;18.80;55.70
70079;DHT22;57451;52.496;13.456;2023-06-14T08:09:15;18.80;55.80
70079;DHT22;57451;52.496;13.456;2023-06-14T08:11:45;18.80;55.10
70079;DHT22;57451;52.496;13.456;2023-06-14T08:14:12;18.90;55.00
70079;DHT22;57451;52.496;13.456;2023-06-14T08:16:40;18.90;55.60
70079;DHT22;57451;52.496;13.456;2023-06-14T08:19:07;19.00;55.30
70079;DHT22;57451;52.496;13.456;2023-06-14T08:21:35;19.00;55.00
70079;DHT22;57451;52.496;13.456;2023-06-14T08:24:04;19.10;55.10
70079;DHT22;57451;52.496;13.456;2023-06-14T08:26:31;19.10;55.30
70079;DHT22;57451;52.496;13.456;2023-06-14T08:29:00;19.10;55.00
70079;DHT22;57451;52.496;13.456;2023-06-14T08:31:31;19.20;54.90
70079;DHT22;57451;52.496;13.456;2023-06-14T08:33:59;19.30;55.10
70079;DHT22;57451;52.496;13.456;2023-06-14T08:36:27;19.30;54.20
70079;DHT22;57451;52.496;13.456;2023-06-14T08:38:54;19.40;54.60
70079;DHT22;57451;52.496;13.456;2023-06-14T08:41:23;19.40;54.10
70079;DHT22;57451;52.496;13.456;2023-06-14T08:43:52;19.40;53.60
70079;DHT22;57451;52.496;13.456;2023-06-14T08:46:21;19.40;53.10
70079;DHT22;57451;52.496;13.456;2023-06-14T08:48:50;19.50;53.00
70079;DHT22;57451;52.496;13.456;2023-06-14T08:51:19;19.50;52.80
70079;DHT22;57451;52.496;13.456;2023-06-14T08:53:53;19.60;52.60
70079;DHT22;57451;52.496;13.456;2023-06-14T08:56:25;19.70;52.20
70079;DHT22;57451;52.496;13.456;2023-06-14T08:58:55;19.70;52.50
70079;DHT22;57451;52.496;13.456;2023-06-14T09:01:50;19.80;52.40
70079;DHT22;57451;52.496;13.456;2023-06-14T09:04:38;19.80;52.20
70079;DHT22;57451;52.496;13.456;2023-06-14T09:07:06;19.90;52.40
70079;DHT22;57451;52.496;13.456;2023-06-14T09:09:38;19.90;52.20
70079;DHT22;57451;52.496;13.456;2023-06-14T09:12:07;20.00;52.20
70079;DHT22;57451;52.496;13.456;2023-06-14T09:14:37;20.10;52.50
70079;DHT22;57451;52.496;13.456;2023-06-14T09:17:08;20.10;52.00
70079;DHT22;57451;52.496;13.456;2023-06-14T09:19:36;20.20;51.60
70079;DHT22;57451;52.496;13.456;2023-06-14T09:22:04;20.30;51.60
70079;DHT22;57451;52.496;13.456;2023-06-14T09:24:32;20.30;51.00
70079;DHT22;57451;52.496;13.456;2023-06-14T09:27:00;20.30;50.90
70079;DHT22;57451;52.496;13.456;2023-06-14T09:29:29;20.30;50.90
70079;DHT22;57451;52.496;13.456;2023-06-14T09:31:58;20.40;50.30
70079;DHT22;57451;52.496;13.456;2023-06-14T09:34:27;20.50;50.00
70079;DHT22;57451;52.496;13.456;2023-06-14T09:36:55;20.40;49.90
70079;DHT22;57451;52.496;13.456;2023-06-14T09:39:23;20.40;50.40
70079;DHT22;57451;52.496;13.456;2023-06-14T09:41:52;20.50;50.70
70079;DHT22;57451;52.496;13.456;2023-06-14T09:44:20;20.50;50.40
70079;DHT22;57451;52.496;13.456;2023-06-14T09:46:49;20.60;50.40
70079;DHT22;57451;52.496;13.456;2023-06-14T09:49:17;20.60;49.80
70079;DHT22;57451;52.496;13.456;2023-06-14T09:51:50;20.70;49.40
70079;DHT22;57451;52.496;13.456;2023-06-14T09:54:22;20.70;49.40
70079;DHT22;57451;52.496;13.456;2023-06-14T09:56:51;20.70;49.80
70079;DHT22;57451;52.496;13.456;2023-06-14T09:59:22;20.80;49.70
70079;DHT22;57451;52.496;13.456;2023-06-14T10:01:58;20.80;49.90
70079;DHT22;57451;52.496;13.456;2023-06-14T10:04:30;20.80;49.80
70079;DHT22;57451;52.496;13.456;2023-06-14T10:07:00;20.80;49.40
70079;DHT22;57451;52.496;13.456;2023-06-14T10:09:30;20.90;49.30
70079;DHT22;57451;52.496;13.456;2023-06-14T10:12:00;20.90;49.20
70079;DHT22;57451;52.496;13.456;2023-06-14T10:14:28;20.90;49.20
70079;DHT22;57451;52.496;13.456;2023-06-14T10:17:00;21.00;48.90
70079;DHT22;57451;52.496;13.456;2023-06-14T10:19:34;21.00;49.20
70079;DHT22;57451;52.496;13.456;2023-06-14T10:22:06;21.00;49.20
70079;DHT22;57451;52.496;13.456;2023-06-14T10:24:41;21.00;49.30
70079;DHT22;57451;52.496;13.456;2023-06-14T10:27:09;21.00;48.90
70079;DHT22;57451;52.496;13.456;2023-06-14T10:30:02;21.00;49.00
70079;DHT22;57451;52.496;13.456;2023-06-14T10:32:31;21.00;49.00
70079;DHT22;57451;52.496;13.456;2023-06-14T10:35:01;21.00;48.90
70079;DHT22;57451;52.496;13.456;2023-06-14T10:37:33;21.00;48.70
70079;DHT22;57451;52.496;13.456;2023-06-14T10:40:00;20.90;48.70
70079;DHT22;57451;52.496;13.456;2023-06-14T10:42:31;21.00;48.50
70079;DHT22;57451;52.496;13.456;2023-06-14T10:45:00;21.00;48.50
70079;DHT22;57451;52.496;13.456;2023-06-14T10:47:28;20.90;48.60
70079;DHT22;57451;52.496;13.456;2023-06-14T10:50:02;20.90;48.70
70079;DHT22;57451;52.496;13.456;2023-06-14T10:52:34;20.80;48.90
70079;DHT22;57451;52.496;13.456;2023-06-14T10:55:05;20.90;48.90
70079;DHT22;57451;52.496;13.456;2023-06-14T10:57:33;20.90;48.80
70079;DHT22;57451;52.496;13.456;2023-06-14T11:00:18;21.00;48.60
70079;DHT22;57451;52.496;13.456;2023-06-14T11:05:49;21.00;48.50
70079;DHT22;57451;52.496;13.456;2023-06-14T11:08:33;21.10;48.80
70079;DHT22;57451;52.496;13.456;2023-06-14T11:11:08;21.10;48.50
70079;DHT22;57451;52.496;13.456;2023-06-14T11:13:38;21.10;48.20
70079;DHT22;57451;52.496;13.456;2023-06-14T11:16:10;21.10;47.70
70079;DHT22;57451;52.496;13.456;2023-06-14T11:18:39;21.00;48.00
70079;DHT22;57451;52.496;13.456;2023-06-14T11:21:07;21.10;48.10
70079;DHT22;57451;52.496;13.456;2023-06-14T11:23:37;21.20;48.30
70079;DHT22;57451;52.496;13.456;2023-06-14T11:26:05;21.30;48.30
70079;DHT22;57451;52.496;13.456;2023-06-14T11:28:37;21.40;48.40
70079;DHT22;57451;52.496;13.456;2023-06-14T11:31:04;21.40;47.80
70079;DHT22;57451;52.496;13.456;2023-06-14T11:33:32;21.50;48.00
70079;DHT22;57451;52.496;13.456;2023-06-14T11:36:02;21.60;47.70
70079;DHT22;57451;52.496;13.456;2023-06-14T11:38:29;21.60;47.70
70079;DHT22;57451;52.496;13.456;2023-06-14T11:41:01;21.80;47.20
70079;DHT22;57451;52.496;13.456;2023-06-14T11:43:29;21.80;46.90
70079;DHT22;57451;52.496;13.456;2023-06-14T11:45:59;21.90;46.90
70079;DHT22;57451;52.496;13.456;2023-06-14T11:48:36;21.90;46.50
70079;DHT22;57451;52.496;13.456;2023-06-14T11:51:05;22.00;46.50
70079;DHT22;57451;52.496;13.456;2023-06-14T11:53:33;22.00;46.00
70079;DHT22;57451;52.496;13.456;2023-06-14T11:56:02;22.10;45.50
70079;DHT22;57451;52.496;13.456;2023-06-14T11:58:30;22.20;45.50
70079;DHT22;57451;52.496;13.456;2023-06-14T12:00:58;22.20;44.70
70079;DHT22;57451;52.496;13.456;2023-06-14T12:03:26;22.30;44.10
70079;DHT22;57451;52.496;13.456;2023-06-14T12:06:05;22.40;43.70
70079;DHT22;57451;52.496;13.456;2023-06-14T12:08:33;22.40;44.30
70079;DHT22;57451;52.496;13.456;2023-06-14T12:11:11;22.60;44.40
70079;DHT22;57451;52.496;13.456;2023-06-14T12:13:39;22.70;44.30
70079;DHT22;57451;52.496;13.456;2023-06-14T12:16:08;22.70;44.30
70079;DHT22;57451;52.496;13.456;2023-06-14T12:18:38;22.80;44.00
70079;DHT22;57451;52.496;13.456;2023-06-14T12:21:07;22.90;44.10
70079;DHT22;57451;52.496;13.456;2023-06-14T12:23:45;23.10;44.90
70079;DHT22;57451;52.496;13.456;2023-06-14T12:26:14;23.10;43.30
70079;DHT22;57451;52.496;13.456;2023-06-14T12:28:44;23.20;42.90
70079;DHT22;57451;52.496;13.456;2023-06-14T12:31:15;23.30;42.50
70079;DHT22;57451;52.496;13.456;2023-06-14T12:33:43;23.40;42.80
70079;DHT22;57451;52.496;13.456;2023-06-14T12:36:13;23.50;43.30
70079;DHT22;57451;52.496;13.456;2023-06-14T12:38:41;23.60;42.40
70079;DHT22;57451;52.496;13.456;2023-06-14T12:41:08;23.70;42.30
70079;DHT22;57451;52.496;13.456;2023-06-14T12:43:39;23.80;41.60
70079;DHT22;57451;52.496;13.456;2023-06-14T12:46:06;23.90;41.50
70079;DHT22;57451;52.496;13.456;2023-06-14T12:48:34;24.00;40.00
70079;DHT22;57451;52.496;13.456;2023-06-14T12:51:01;24.10;39.40
70079;DHT22;57451;52.496;13.456;2023-06-14T12:53:32;24.20;40.00
70079;DHT22;57451;52.496;13.456;2023-06-14T12:56:00;24.20;40.70
70079;DHT22;57451;52.496;13.456;2023-06-14T12:58:27;24.40;39.60
70079;DHT22;57451;52.496;13.456;2023-06-14T13:00:56;24.50;39.40
70079;DHT22;57451;52.496;13.456;2023-06-14T13:03:24;24.60;38.80
70079;DHT22;57451;52.496;13.456;2023-06-14T13:05:52;24.60;38.10
70079;DHT22;57451;52.496;13.456;2023-06-14T13:08:19;24.70;38.20
70079;DHT22;57451;52.496;13.456;2023-06-14T13:10:51;24.70;38.20
70079;DHT22;57451;52.496;13.456;2023-06-14T13:13:19;24.80;38.00
70079;DHT22;57451;52.496;13.456;2023-06-14T13:15:47;25.00;38.70
70079;DHT22;57451;52.496;13.456;2023-06-14T13:18:18;25.10;37.70
70079;DHT22;57451;52.496;13.456;2023-06-14T13:20:46;25.20;38.60
70079;DHT22;57451;52.496;13.456;2023-06-14T13:23:16;25.30;37.00
70079;DHT22;57451;52.496;13.456;2023-06-14T13:25:44;25.40;37.90
70079;DHT22;57451;52.496;13.456;2023-06-14T13:28:12;25.40;37.20
70079;DHT22;57451;52.496;13.456;2023-06-14T13:30:39;25.50;38.60
70079;DHT22;57451;52.496;13.456;2023-06-14T13:33:07;25.60;36.80
70079;DHT22;57451;52.496;13.456;2023-06-14T13:35:36;25.60;37.40
70079;DHT22;57451;52.496;13.456;2023-06-14T13:38:04;25.70;37.10
70079;DHT22;57451;52.496;13.456;2023-06-14T13:40:31;25.80;36.60
70079;DHT22;57451;52.496;13.456;2023-06-14T13:42:59;25.90;37.20
70079;DHT22;57451;52.496;13.456;2023-06-14T13:45:27;25.90;36.10
70079;DHT22;57451;52.496;13.456;2023-06-14T13:47:55;25.90;37.10
70079;DHT22;57451;52.496;13.456;2023-06-14T13:50:22;25.90;37.20
70079;DHT22;57451;52.496;13.456;2023-06-14T13:52:51;25.90;37.40
70079;DHT22;57451;52.496;13.456;2023-06-14T13:55:19;25.90;36.30
70079;DHT22;57451;52.496;13.456;2023-06-14T13:57:47;25.90;36.50
70079;DHT22;57451;52.496;13.456;2023-06-14T14:00:15;25.90;36.20
70079;DHT22;57451;52.496;13.456;2023-06-14T14:02:44;25.90;36.40
70079;DHT22;57451;52.496;13.456;2023-06-14T14:05:14;25.90;35.50
70079;DHT22;57451;52.496;13.456;2023-06-14T14:07:42;25.90;35.90
70079;DHT22;57451;52.496;13.456;2023-06-14T14:10:11;25.80;37.20
70079;DHT22;57451;52.496;13.456;2023-06-14T14:12:41;25.80;35.80
70079;DHT22;57451;52.496;13.456;2023-06-14T14:15:09;25.70;36.30
70079;DHT22;57451;52.496;13.456;2023-06-14T14:17:40;25.70;37.30
70079;DHT22;57451;52.496;13.456;2023-06-14T14:20:09;25.70;37.20
70079;DHT22;57451;52.496;13.456;2023-06-14T14:22:39;25.60;36.20
70079;DHT22;57451;52.496;13.456;2023-06-14T14:25:13;25.60;36.20
70079;DHT22;57451;52.496;13.456;2023-06-14T14:27:40;25.60;37.00
70079;DHT22;57451;52.496;13.456;2023-06-14T14:30:08;25.70;36.30
70079;DHT22;57451;52.496;13.456;2023-06-14T14:32:36;25.70;36.50
70079;DHT22;57451;52.496;13.456;2023-06-14T14:35:04;25.60;35.40
70079;DHT22;57451;52.496;13.456;2023-06-14T14:37:32;25.60;36.40
70079;DHT22;57451;52.496;13.456;2023-06-14T14:40:00;25.60;37.30
70079;DHT22;57451;52.496;13.456;2023-06-14T14:42:29;25.60;35.60
70079;DHT22;57451;52.496;13.456;2023-06-14T14:44:57;25.60;35.30
70079;DHT22;57451;52.496;13.456;2023-06-14T14:47:25;25.60;36.00
70079;DHT22;57451;52.496;13.456;2023-06-14T14:49:52;25.60;35.30
70079;DHT22;57451;52.496;13.456;2023-06-14T14:52:20;25.60;35.70
70079;DHT22;57451;52.496;13.456;2023-06-14T14:54:50;25.60;35.20
70079;DHT22;57451;52.496;13.456;2023-06-14T14:57:18;25.70;35.80
70079;DHT22;57451;52.496;13.456;2023-06-14T14:59:47;25.60;34.00
70079;DHT22;57451;52.496;13.456;2023-06-14T15:02:15;25.50;34.80
70079;DHT22;57451;52.496;13.456;2023-06-14T15:04:42;25.40;34.90
70079;DHT22;57451;52.496;13.456;2023-06-14T15:07:09;25.40;35.40
70079;DHT22;57451;52.496;13.456;2023-06-14T15:09:38;25.40;34.90
70079;DHT22;57451;52.496;13.456;2023-06-14T15:12:06;25.30;35.90
70079;DHT22;57451;52.496;13.456;2023-06-14T15:14:34;25.20;35.90
70079;DHT22;57451;52.496;13.456;2023-06-14T15:17:03;25.00;36.50
70079;DHT22;57451;52.496;13.456;2023-06-14T15:19:33;24.90;36.60
70079;DHT22;57451;52.496;13.456;2023-06-14T15:22:03;24.90;36.70
70079;DHT22;57451;52.496;13.456;2023-06-14T15:24:32;24.80;36.50
70079;DHT22;57451;52.496;13.456;2023-06-14T15:27:10;24.60;36.70
70079;DHT22;57451;52.496;13.456;2023-06-14T15:29:40;24.50;36.80
70079;DHT22;57451;52.496;13.456;2023-06-14T15:32:09;24.40;37.30
70079;DHT22;57451;52.496;13.456;2023-06-14T15:34:38;24.30;37.30